Time;durP1;ratioP1;P1;durP2;ratioP2;P2;SDS_P1;SDS_P2;PMS_P1;PMS_P2;Temp;Humidity;BMP_temperature;BMP_pressure;BME280_temperature;BME280_humidity;BME280_pressure;Samples;Min_cycle;Max_cycle;Signal;HPM_P1;HPM_P2
2021/11/01 00:01:37;;;;;;;8.48;1.42;;;;;;;9.80;69.14;98031.28;6341292;22;20074;-77
2021/11/01 00:04:10;;;;;;;13.35;1.55;;;;;;;9.85;68.75;98031.09;6166601;23;20013;-78
2021/11/01 00:06:43;;;;;;;7.93;1.15;;;;;;;9.86;68.21;98030.00;6188681;23;20032;-78
2021/11/01 00:09:28;;;;;;;;;;;;;;;;;;;;;
2021/11/01 00:11:54;;;;;;;18.80;1.60;;;;;;;9.82;68.36;98039.16;6341682;22;20030;-79
2021/11/01 00:14:19;;;;;;;3.97;1.33;;;;;;;9.82;68.42;98030.97;6344896;22;20006;-77
2021/11/01 00:16:48;;;;;;;9.98;1.42;;;;;;;9.87;68.26;98031.59;6318599;22;20435;-77
2021/11/01 00:19:15;;;;;;;13.68;1.42;;;;;;;9.87;68.48;98036.25;6346069;22;20492;-77
2021/11/01 00:21:41;;;;;;;12.82;1.25;;;;;;;9.85;68.58;98044.75;6344012;22;20421;-78
2021/11/01 00:24:06;;;;;;;7.53;1.08;;;;;;;9.89;67.91;98034.03;6340796;22;20052;-78
2021/11/01 00:26:32;;;;;;;5.95;0.73;;;;;;;9.92;68.29;98033.38;6337559;22;20010;-78
2021/11/01 00:29:02;;;;;;;4.50;1.00;;;;;;;9.90;67.80;98036.44;6336983;22;20005;-78
2021/11/01 00:31:28;;;;;;;3.78;1.30;;;;;;;9.83;67.70;98030.63;6337232;22;20082;-79
2021/11/01 00:33:54;;;;;;;9.68;1.27;;;;;;;9.87;67.84;98047.16;6309765;22;20072;-80
2021/11/01 00:36:22;;;;;;;9.43;1.23;;;;;;;9.85;67.67;98028.38;6333470;22;20014;-77
2021/11/01 00:38:50;;;;;;;12.75;1.10;;;;;;;9.86;67.72;98046.38;6333205;22;20007;-75
2021/11/01 00:41:42;;;;;;;8.88;1.27;;;;;;;9.75;67.86;98028.69;6311915;22;20002;-75
2021/11/01 00:44:18;;;;;;;8.85;1.17;;;;;;;9.72;68.00;98002.03;6129769;23;20017;-75
2021/11/01 00:47:16;;;;;;;;;;;;;;;;;;;;;
2021/11/01 00:50:05;;;;;;;5.25;1.10;;;;;;;9.62;67.83;98008.59;6313417;22;19951;-72
2021/11/01 00:52:34;;;;;;;6.43;1.00;;;;;;;9.69;67.97;97991.75;6332040;22;20031;-76
2021/11/01 00:55:20;;;;;;;;;;;;;;;;;;;;;
2021/11/01 00:57:52;;;;;;;8.05;1.00;;;;;;;9.63;67.80;98031.25;6334704;22;20504;-75
2021/11/01 01:00:29;;;;;;;;;;;;;;;;;;;;;
2021/11/01 01:02:56;;;;;;;8.55;1.00;;;;;;;9.64;68.13;98000.09;6335086;22;20073;-75
2021/11/01 01:05:21;;;;;;;8.00;1.17;;;;;;;9.62;67.82;98024.97;6349152;22;20002;-74
2021/11/01 01:07:47;;;;;;;6.10;1.05;;;;;;;9.68;67.66;98006.53;6352781;22;20006;-75
2021/11/01 01:10:13;;;;;;;4.93;1.23;;;;;;;9.58;68.08;98003.00;6349657;22;20026;-76
2021/11/01 01:12:48;;;;;;;10.52;1.13;;;;;;;9.74;67.71;98021.66;6315896;22;20002;-77
2021/11/01 01:15:21;;;;;;;8.80;1.88;;;;;;;9.65;67.84;98018.91;6336669;22;20045;-77
2021/11/01 01:17:50;;;;;;;3.38;1.08;;;;;;;9.64;68.35;98016.47;6336446;22;20046;-76
2021/11/01 01:20:19;;;;;;;7.55;1.10;;;;;;;9.58;67.45;98016.63;6344055;22;20009;-77
2021/11/01 01:22:45;;;;;;;5.88;0.95;;;;;;;9.52;68.52;98015.19;6339008;22;20026;-78
2021/11/01 01:25:21;;;;;;;9.60;1.48;;;;;;;9.58;68.19;98018.56;6335917;22;20027;-77
2021/11/01 01:27:51;;;;;;;10.85;1.52;;;;;;;9.52;68.69;98042.47;6334929;22;20029;-77
2021/11/01 01:30:16;;;;;;;7.18;0.70;;;;;;;9.59;67.61;98029.16;6334598;22;20007;-76
2021/11/01 01:32:44;;;;;;;7.28;0.98;;;;;;;9.60;67.70;98027.22;6306395;22;20027;-78
2021/11/01 01:35:11;;;;;;;8.68;0.70;;;;;;;9.60;67.87;98035.41;6332432;22;20065;-77
2021/11/01 01:37:37;;;;;;;11.02;1.02;;;;;;;9.56;68.41;98027.06;6335119;22;20082;-77
2021/11/01 01:40:06;;;;;;;5.93;1.00;;;;;;;9.52;68.20;98058.84;6334982;22;20333;-77
2021/11/01 01:42:32;;;;;;;11.15;2.08;;;;;;;9.53;68.06;98026.88;6332347;22;20030;-77
2021/11/01 01:44:57;;;;;;;4.55;1.23;;;;;;;9.58;68.01;98040.41;6334772;22;20421;-78
2021/11/01 01:47:23;;;;;;;7.05;1.65;;;;;;;9.56;68.08;98027.06;6332539;22;20020;-77
2021/11/01 01:49:48;;;;;;;9.38;0.85;;;;;;;9.50;67.86;98025.59;6333870;22;20002;-77
2021/11/01 01:52:14;;;;;;;9.15;1.25;;;;;;;9.46;68.07;98026.56;6334527;22;20073;-77
2021/11/01 01:54:40;;;;;;;3.50;0.88;;;;;;;9.49;67.51;98045.00;6334688;22;20014;-76
2021/11/01 01:57:05;;;;;;;3.30;0.70;;;;;;;9.48;67.82;98030.56;6333821;22;20015;-77
2021/11/01 01:59:32;;;;;;;3.78;1.10;;;;;;;9.47;67.65;98034.41;6333621;22;20310;-77
2021/11/01 02:02:01;;;;;;;1.05;0.40;;;;;;;9.53;67.28;98035.06;6329548;22;20022;-77
2021/11/01 02:04:44;;;;;;;7.28;1.08;;;;;;;9.47;67.57;98023.50;6309336;22;20006;-77
2021/11/01 02:07:27;;;;;;;5.45;0.70;;;;;;;9.45;67.40;98009.38;6331833;22;20080;-78
2021/11/01 02:14:38;;;;;;;2.55;0.40;;;;;;;9.36;66.89;98008.53;6202384;23;20075;-78
2021/11/01 02:20:23;;;;;;;1.35;0.60;;;;;;;9.36;66.99;98008.53;6245023;23;20015;-78
2021/11/01 02:23:03;;;;;;;5.63;0.93;;;;;;;9.47;66.87;98023.50;6243189;23;20003;-79
2021/11/01 02:25:48;;;;;;;2.63;0.65;;;;;;;9.39;67.07;98010.66;6323807;22;20321;-79
2021/11/01 02:28:26;;;;;;;7.18;1.17;;;;;;;9.35;67.22;98023.31;6333565;22;20082;-78
2021/11/01 02:30:53;;;;;;;2.63;0.68;;;;;;;9.42;67.41;98031.84;6313925;22;20188;-78
2021/11/01 02:33:33;;;;;;;10.00;1.02;;;;;;;9.44;67.30;98024.13;6343300;22;20019;-78
2021/11/01 02:36:01;;;;;;;2.35;0.70;;;;;;;9.44;66.89;98018.69;6341148;22;19995;-77
2021/11/01 02:38:31;;;;;;;3.28;0.40;;;;;;;9.50;66.93;98027.53;6292217;22;20007;-78
2021/11/01 02:41:05;;;;;;;3.22;0.63;;;;;;;9.50;66.96;98024.81;6339875;22;20014;-78
2021/11/01 02:43:30;;;;;;;3.17;0.57;;;;;;;9.44;66.54;98035.06;6313998;22;20003;-76
2021/11/01 02:45:57;;;;;;;4.20;1.10;;;;;;;9.47;66.74;98028.97;6351970;22;20010;-75
2021/11/01 02:48:23;;;;;;;10.85;1.83;;;;;;;9.44;66.83;98040.50;6342902;22;20006;-74
2021/11/01 02:50:48;;;;;;;7.32;0.90;;;;;;;9.48;66.86;98046.94;6336972;22;20006;-75
2021/11/01 02:53:14;;;;;;;2.67;0.70;;;;;;;9.51;66.79;98038.13;6336066;22;20053;-76
2021/11/01 02:55:40;;;;;;;5.60;0.75;;;;;;;9.51;67.09;98046.31;6335800;22;20009;-75
2021/11/01 02:58:13;;;;;;;5.57;0.70;;;;;;;9.46;66.85;98038.25;6338967;22;20006;-76
2021/11/01 03:00:39;;;;;;;3.30;0.47;;;;;;;9.43;66.79;98049.81;6318817;22;20086;-76
2021/11/01 03:03:05;;;;;;;1.55;0.63;;;;;;;9.51;66.51;98049.03;6346197;22;20626;-74
2021/11/01 03:05:32;;;;;;;6.93;1.08;;;;;;;9.55;66.41;98052.75;6346912;22;20041;-75
2021/11/01 03:08:53;;;;;;;2.35;0.70;;;;;;;9.54;67.09;98053.84;6308936;22;20045;-75
2021/11/01 03:11:19;;;;;;;3.40;0.77;;;;;;;9.44;66.50;98051.41;6158476;22;20005;-77
2021/11/01 03:13:56;;;;;;;;;;;;;;;;;;;;;
2021/11/01 03:16:22;;;;;;;11.48;1.50;;;;;;;9.51;67.45;98073.59;6281417;22;20086;-77
2021/11/01 03:18:56;;;;;;;5.15;0.80;;;;;;;9.44;67.37;98063.13;6277926;22;20007;-77
2021/11/01 03:21:49;;;;;;;2.92;0.60;;;;;;;9.54;67.17;98066.69;6278341;22;20014;-77
2021/11/01 03:24:33;;;;;;;9.25;1.10;;;;;;;9.43;67.56;98060.72;6300814;22;20011;-73
2021/11/01 03:30:15;;;;;;;13.57;1.25;;;;;;;9.37;68.19;98070.97;6168593;23;20017;-77
2021/11/01 03:33:47;;;;;;;;;;;;;;;;;;;;;
2021/11/01 03:36:39;;;;;;;4.82;1.10;;;;;;;9.44;67.80;98078.69;6304595;22;20106;-77
2021/11/01 03:39:08;;;;;;;2.47;0.60;;;;;;;9.31;68.28;98063.25;6332128;22;20010;-77
2021/11/01 03:42:09;;;;;;;10.75;0.98;;;;;;;9.35;69.13;98075.16;6341284;22;20025;-76
2021/11/01 03:44:48;;;;;;;;;;;;;;;;;;;;;
2021/11/01 03:47:27;;;;;;;;;;;;;;;;;;;;;
2021/11/01 03:50:55;;;;;;;;;;;;;;;;;;;;;
2021/11/01 03:54:13;;;;;;;5.68;0.70;;;;;;;9.11;68.56;98048.25;6337059;22;20085;-74
2021/11/01 03:56:41;;;;;;;5.93;0.70;;;;;;;9.20;69.14;98066.25;6180462;22;20294;-77
2021/11/01 03:59:14;;;;;;;7.15;0.93;;;;;;;9.13;69.10;98051.47;6337043;22;20408;-77
2021/11/01 04:02:15;;;;;;;3.75;0.80;;;;;;;9.25;69.04;98079.75;6367679;22;20002;-78
2021/11/01 04:05:23;;;;;;;11.82;1.00;;;;;;;9.20;69.41;98085.34;6342064;22;20025;-78
2021/11/01 04:08:36;;;;;;;;;;;;;;;;;;;;;
2021/11/01 04:11:02;;;;;;;7.85;1.10;;;;;;;9.03;69.65;98061.53;6271574;22;20490;-75
2021/11/01 04:13:54;;;;;;;4.47;0.77;;;;;;;9.17;69.44;98075.06;6337546;22;20033;-75
2021/11/01 04:16:58;;;;;;;4.95;0.77;;;;;;;9.10;69.82;98077.44;6340464;22;20026;-76
2021/11/01 04:19:53;;;;;;;7.78;0.90;;;;;;;9.22;69.12;98082.31;6305023;22;20033;-74
2021/11/01 04:22:42;;;;;;;8.32;0.63;;;;;;;9.11;69.39;98070.06;6325497;22;20030;-74
2021/11/01 04:25:31;;;;;;;16.10;1.15;;;;;;;9.19;69.31;98089.19;6339821;22;20002;-74
2021/11/01 04:28:14;;;;;;;6.20;0.47;;;;;;;9.03;69.10;98064.25;6340324;22;20690;-74
2021/11/01 04:30:43;;;;;;;4.78;1.10;;;;;;;9.19;69.58;98097.38;6367755;22;20485;-75
2021/11/01 04:33:12;;;;;;;4.30;0.90;;;;;;;9.14;69.70;98088.50;6368016;22;20021;-75
2021/11/01 04:35:39;;;;;;;8.23;1.35;;;;;;;9.14;69.46;98089.34;6365377;22;20018;-73
2021/11/01 04:41:27;;;;;;;6.78;0.98;;;;;;;9.10;69.95;98101.97;6375999;22;20340;-74
2021/11/01 04:54:55;;;;;;;4.30;0.50;;;;;;;9.02;70.11;98124.53;6341510;22;20064;-74
2021/11/01 04:57:25;;;;;;;4.50;0.75;;;;;;;8.87;70.56;98115.63;6336693;22;20033;-73
2021/11/01 05:05:47;;;;;;;2.53;0.60;;;;;;;8.84;71.31;98118.97;6371177;22;20099;-74
2021/11/01 05:21:08;;;;;;;;;;;;;;;;;;;;;
2021/11/01 05:24:07;;;;;;;4.35;0.95;;;;;;;8.84;70.77;98142.72;6240565;22;20100;-76
2021/11/01 05:29:30;;;;;;;9.00;0.90;;;;;;;8.77;70.84;98148.59;6216340;23;20019;-75
2021/11/01 05:32:06;;;;;;;8.25;1.75;;;;;;;8.76;70.79;98149.72;6188257;23;20427;-75
2021/11/01 05:34:32;;;;;;;5.25;0.95;;;;;;;8.63;71.31;98131.50;6291073;22;20022;-75
2021/11/01 05:36:59;;;;;;;9.45;0.93;;;;;;;8.77;70.66;98147.78;6364497;22;20301;-74
2021/11/01 05:39:27;;;;;;;3.78;0.60;;;;;;;8.66;70.98;98131.69;6338886;22;20026;-75
2021/11/01 05:41:53;;;;;;;5.05;0.82;;;;;;;8.63;71.32;98137.75;6363994;22;20082;-74
2021/11/01 05:44:18;;;;;;;5.97;1.05;;;;;;;8.62;71.01;98129.91;6337109;22;20029;-75
2021/11/01 05:46:49;;;;;;;3.30;0.70;;;;;;;8.68;71.55;98145.78;6334801;22;20002;-75
2021/11/01 05:49:20;;;;;;;8.25;0.65;;;;;;;8.66;71.87;98148.03;6316738;22;20010;-74
2021/11/01 05:51:46;;;;;;;2.53;0.40;;;;;;;8.67;71.70;98148.84;6366295;22;20081;-75
2021/11/01 05:54:15;;;;;;;5.60;0.70;;;;;;;8.60;71.54;98145.72;6366054;22;20494;-75
2021/11/01 05:57:17;;;;;;;6.45;0.73;;;;;;;8.52;71.60;98136.38;6312159;22;20002;-75
2021/11/01 06:15:05;;;;;;;4.47;0.80;;;;;;;8.55;72.91;98176.63;6366813;22;20084;-76
2021/11/01 06:17:32;;;;;;;11.00;1.40;;;;;;;8.46;72.65;98171.09;6368731;22;19994;-75
2021/11/01 06:19:58;;;;;;;2.92;0.98;;;;;;;8.46;72.83;98176.56;6349328;22;20010;-76
2021/11/01 06:22:24;;;;;;;3.40;1.00;;;;;;;8.49;72.76;98184.09;6373819;22;20372;-75
2021/11/01 06:24:57;;;;;;;3.38;0.70;;;;;;;8.39;72.87;98176.94;6368217;22;20081;-75
2021/11/01 06:27:23;;;;;;;5.18;0.63;;;;;;;8.42;72.67;98174.72;6364303;22;20294;-76
2021/11/01 06:55:59;;;;;;;5.68;0.70;;;;;;;8.30;72.90;98206.00;6373258;22;20006;-74
2021/11/01 06:57:58;;;;;;;8.52;1.40;;;;;;;8.20;73.28;98196.13;6341991;22;20010;-74
2021/11/01 07:14:19;;;;;;;8.10;0.80;;;;;;;8.20;72.94;98211.66;6364814;22;20049;-72
2021/11/01 07:17:13;;;;;;;7.88;1.13;;;;;;;8.10;72.83;98196.34;6333695;22;20007;-74
2021/11/01 08:27:24;;;;;;;7.35;0.60;;;;;;;11.62;64.76;98272.09;6313205;22;20009;-75
2021/11/01 08:40:50;;;;;;;1.98;0.82;;;;;;;14.02;57.87;98270.66;6377213;22;20015;-76
2021/11/01 09:05:11;;;;;;;4.95;0.80;;;;;;;14.51;52.62;98282.81;6373496;22;20336;-75
2021/11/01 09:07:59;;;;;;;5.53;0.52;;;;;;;14.41;52.42;98273.88;6338183;22;20025;-76
2021/11/01 09:27:51;;;;;;;1.55;0.57;;;;;;;17.47;45.16;98325.22;6319284;22;20013;-78
2021/11/01 09:36:10;;;;;;;2.08;0.45;;;;;;;18.41;42.91;98316.72;6369073;22;20025;-78
2021/11/01 09:39:20;;;;;;;5.55;0.60;;;;;;;18.80;42.74;98326.81;6338183;22;20007;-78
2021/11/01 09:41:52;;;;;;;4.65;0.45;;;;;;;18.98;41.13;98304.94;6340214;22;20003;-79
2021/11/01 09:44:24;;;;;;;3.28;0.70;;;;;;;19.14;40.43;98307.53;6340372;22;20085;-76
2021/11/01 09:46:55;;;;;;;1.15;0.45;;;;;;;19.28;40.68;98313.28;6315316;22;19998;-78
2021/11/01 09:49:28;;;;;;;1.45;0.65;;;;;;;19.56;40.35;98314.81;6341530;22;20002;-79
2021/11/01 09:52:19;;;;;;;3.08;0.88;;;;;;;19.82;39.92;98332.56;6369383;22;20168;-77
2021/11/01 09:54:57;;;;;;;9.02;1.02;;;;;;;19.84;38.84;98322.69;6348130;22;20002;-76
2021/11/01 09:59:11;;;;;;;2.92;0.63;;;;;;;20.03;38.97;98338.34;6349191;22;20006;-75
2021/11/01 10:00:43;;;;;;;3.72;0.52;;;;;;;20.53;37.64;98346.34;6387226;22;20082;-74
2021/11/01 10:03:37;;;;;;;2.03;0.63;;;;;;;20.45;36.79;98339.13;6387143;22;20033;-76
2021/11/01 10:07:10;;;;;;;;;;;;;;;;;;;;;
2021/11/01 10:12:59;;;;;;;5.63;0.70;;;;;;;21.02;37.45;98363.00;6208956;23;20304;-74
2021/11/01 10:18:17;;;;;;;11.25;0.73;;;;;;;21.28;35.79;98373.88;6236188;23;20066;-73
2021/11/01 10:20:47;;;;;;;8.60;0.75;;;;;;;21.07;35.96;98352.34;6235950;23;20012;-75
2021/11/01 10:23:57;;;;;;;2.92;0.60;;;;;;;21.36;35.80;98363.63;6237508;23;20008;-77
2021/11/01 10:26:30;;;;;;;3.00;0.65;;;;;;;21.37;36.16;98345.75;6238790;23;20005;-77
2021/11/01 10:29:41;;;;;;;1.98;0.63;;;;;;;21.87;35.27;98361.06;6213933;23;20004;-77
2021/11/01 10:32:48;;;;;;;;;;;;;;;;;;;;;
2021/11/01 10:35:40;;;;;;;2.30;0.60;;;;;;;22.11;34.28;98365.91;6255831;22;20511;-75
2021/11/01 10:39:16;;;;;;;;;;;;;;;;;;;;;
2021/11/01 10:45:30;;;;;;;1.23;0.93;;;;;;;22.40;33.19;98379.13;6188878;23;20032;-76
2021/11/01 11:13:10;;;;;;;2.85;0.30;;;;;;;23.16;31.41;98391.91;6335933;22;20121;-76
2021/11/01 11:15:40;;;;;;;5.82;0.47;;;;;;;23.26;31.21;98412.59;6343828;22;20018;-78
2021/11/01 11:18:44;;;;;;;1.25;0.30;;;;;;;23.45;31.34;98393.81;6354773;22;20011;-80
2021/11/01 11:47:22;;;;;;;4.45;0.35;;;;;;;20.00;35.09;98379.91;6215762;23;20027;-72
2021/11/01 11:49:57;;;;;;;1.13;0.30;;;;;;;20.32;35.32;98383.00;6235062;23;20439;-74
2021/11/01 11:52:53;;;;;;;;;;;;;;;;;;;;;
2021/11/01 11:55:25;;;;;;;2.85;0.35;;;;;;;19.64;36.12;98383.03;6287655;22;20085;-75
2021/11/01 11:58:05;;;;;;;2.58;0.50;;;;;;;18.75;37.87;98380.53;6333076;22;20002;-76
2021/11/01 12:00:36;;;;;;;0.95;0.40;;;;;;;17.93;38.47;98369.59;6363253;22;19991;-76
2021/11/01 12:03:34;;;;;;;0.75;0.38;;;;;;;17.49;40.76;98405.78;6335707;22;20324;-77
2021/11/01 12:06:11;;;;;;;2.40;0.32;;;;;;;17.62;40.01;98381.56;6350469;22;20044;-76
2021/11/01 12:08:48;;;;;;;0.40;0.20;;;;;;;17.36;40.85;98373.91;6364181;22;20026;-75
2021/11/01 12:11:30;;;;;;;0.88;0.20;;;;;;;16.71;42.96;98381.47;6339195;22;20386;-76
2021/11/01 12:14:18;;;;;;;4.57;0.50;;;;;;;15.92;44.66;98392.44;6337894;22;19999;-77
2021/11/01 12:17:09;;;;;;;2.78;0.73;;;;;;;15.45;47.57;98369.84;6342431;22;20014;-75
2021/11/01 12:19:38;;;;;;;1.17;0.20;;;;;;;15.95;52.29;98380.72;6340873;22;19994;-78
2021/11/01 12:22:24;;;;;;;8.45;0.80;;;;;;;17.80;49.04;98390.25;6367431;22;20055;-77
2021/11/01 12:24:52;;;;;;;0.40;0.30;;;;;;;19.62;45.38;98388.13;6317350;22;20083;-76
2021/11/01 12:27:21;;;;;;;0.20;0.10;;;;;;;21.16;42.48;98392.84;6298475;22;20010;-76
2021/11/01 12:30:28;;;;;;;1.75;0.60;;;;;;;22.86;38.51;98392.28;6370294;22;20421;-78
2021/11/01 12:32:56;;;;;;;0.70;0.30;;;;;;;23.85;34.99;98397.28;6318275;22;20025;-78
2021/11/01 12:36:42;;;;;;;0.88;0.22;;;;;;;25.27;33.19;98409.94;6323362;22;20333;-77
2021/11/01 12:39:16;;;;;;;1.27;0.20;;;;;;;26.20;29.93;98408.09;6307634;22;20015;-77
2021/11/01 12:42:07;;;;;;;0.35;0.13;;;;;;;26.25;28.09;98398.44;6287393;22;20021;-77
2021/11/01 12:57:03;;;;;;;1.17;0.15;;;;;;;23.83;28.04;98400.47;6327016;22;20022;-75
2021/11/01 12:59:40;;;;;;;3.53;0.32;;;;;;;23.67;28.98;98391.75;6373813;22;20010;-78
2021/11/01 13:02:31;;;;;;;1.13;0.30;;;;;;;23.36;29.15;98385.88;6371658;22;20068;-76
2021/11/01 13:05:11;;;;;;;0.20;0.20;;;;;;;23.17;29.17;98382.34;6342815;22;20006;-77
2021/11/01 13:10:55;;;;;;;0.35;0.10;;;;;;;23.74;28.83;98393.75;6300895;22;20010;-77
2021/11/01 13:20:20;;;;;;;;;;;;;;;;;;;;;
2021/11/01 13:23:01;;;;;;;0.17;0.10;;;;;;;23.94;27.53;98411.63;6344942;22;20020;-77
2021/11/01 13:41:40;;;;;;;;;;;;;;;;;;;;;
2021/11/01 13:47:32;;;;;;;0.98;0.20;;;;;;;21.32;33.66;98393.38;6368796;22;20042;-78
2021/11/01 13:50:05;;;;;;;0.95;0.20;;;;;;;21.79;31.66;98388.88;6319621;22;20011;-77
2021/11/01 13:52:41;;;;;;;0.60;0.30;;;;;;;21.91;33.10;98382.16;6371678;22;20005;-76
2021/11/01 13:56:20;;;;;;;7.47;0.10;;;;;;;22.20;31.58;98392.59;6370608;22;20600;-77
2021/11/01 15:18:44;;;;;;;0.30;0.10;;;;;;;21.22;34.31;98374.66;6253129;23;20000;-75
2021/11/01 16:32:49;;;;;;;0.20;0.20;;;;;;;11.37;56.52;98382.38;5916122;24;20036;-76
2021/11/01 16:35:53;;;;;;;;;;;;;;;;;;;;;
2021/11/01 16:38:24;;;;;;;0.57;0.10;;;;;;;11.13;57.41;98375.44;5911684;24;20426;-76
2021/11/01 16:41:06;;;;;;;1.67;0.10;;;;;;;11.06;57.15;98383.31;5972227;23;20024;-76
2021/11/01 16:43:34;;;;;;;0.20;0.10;;;;;;;11.10;58.01;98398.78;6152978;23;20008;-75
2021/11/01 16:46:00;;;;;;;0.75;0.25;;;;;;;10.96;57.50;98392.63;6238614;22;20012;-73
2021/11/01 16:52:34;;;;;;;0.45;0.20;;;;;;;10.87;57.26;98413.69;6094445;23;20066;-76
2021/11/01 17:02:03;;;;;;;;;;;;;;;;;;;;;
2021/11/01 18:42:09;;;;;;;1.67;0.47;;;;;;;8.80;68.79;98455.91;6384077;22;20365;-79
2021/11/01 18:51:37;;;;;;;0.70;0.47;;;;;;;8.47;69.22;98428.78;6379665;22;20041;-84
2021/11/01 18:54:18;;;;;;;1.92;0.77;;;;;;;8.62;69.89;98473.19;6339589;22;20006;-77
2021/11/01 19:04:41;;;;;;;1.35;1.08;;;;;;;8.51;70.32;98478.81;6115632;23;20059;-76
2021/11/01 19:15:46;;;;;;;;;;;;;;;;;;;;;
2021/11/01 20:02:34;;;;;;;2.08;0.80;;;;;;;8.29;69.75;98482.16;6140725;23;20013;-74
2021/11/01 20:04:44;;;;;;;;;;;;;;;;;;;;;
2021/11/01 20:13:24;;;;;;;2.80;0.75;;;;;;;8.12;72.53;98515.38;6321009;22;20034;-76
2021/11/01 21:26:07;;;;;;;1.45;1.35;;;;;;;7.22;75.90;98538.94;6060984;23;20402;-79
2021/11/01 21:28:40;;;;;;;1.30;1.13;;;;;;;7.15;76.32;98531.94;6202225;22;20012;-78
2021/11/01 21:31:06;;;;;;;2.05;0.93;;;;;;;7.07;75.82;98524.41;6325959;22;20010;-77
2021/11/01 21:33:34;;;;;;;2.08;1.67;;;;;;;7.00;76.35;98518.50;6379445;22;20362;-78
2021/11/01 21:36:10;;;;;;;0.93;0.93;;;;;;;7.10;76.31;98529.25;6326248;22;20093;-79
2021/11/01 21:38:36;;;;;;;2.35;1.05;;;;;;;7.06;75.75;98522.78;6301881;22;20337;-79
2021/11/01 21:41:12;;;;;;;2.97;1.23;;;;;;;7.09;76.36;98533.06;6351683;22;20007;-80
2021/11/01 21:43:56;;;;;;;3.90;1.38;;;;;;;7.09;76.69;98533.06;6350469;22;20010;-79
2021/11/01 21:46:39;;;;;;;5.45;1.90;;;;;;;7.05;77.80;98540.19;6331473;22;20006;-79
2021/11/01 21:49:17;;;;;;;;;;;;;;;;;;;;;
2021/11/01 21:51:54;;;;;;;;;;;;;;;;;;;;;
2021/11/01 21:54:32;;;;;;;0.98;0.68;;;;;;;7.01;77.96;98525.56;6380497;22;20022;-79
2021/11/01 21:57:20;;;;;;;;;;;;;;;;;;;;;
2021/11/01 22:00:12;;;;;;;2.92;1.15;;;;;;;6.96;77.86;98507.38;6377747;22;20032;-79
2021/11/01 22:20:13;;;;;;;1.50;1.40;;;;;;;7.05;77.66;98532.03;6358218;22;20485;-77
2021/11/01 22:24:52;;;;;;;3.08;1.30;;;;;;;7.02;77.18;98532.59;6398381;22;20086;-77
2021/11/01 22:38:27;;;;;;;3.00;1.05;;;;;;;6.86;77.91;98539.31;6373155;22;20394;-74
2021/11/01 22:43:56;;;;;;;1.30;1.00;;;;;;;6.87;77.69;98551.81;6354932;22;20170;-75
2021/11/01 22:57:32;;;;;;;2.03;1.25;;;;;;;6.80;78.77;98558.41;6348319;22;20020;-74
2021/11/01 23:00:25;;;;;;;1.73;0.95;;;;;;;6.68;78.40;98538.13;6289605;22;20003;-74
2021/11/01 23:03:00;;;;;;;2.80;1.02;;;;;;;6.75;78.58;98544.84;6342096;22;20003;-75
2021/11/01 23:32:40;;;;;;;1.55;0.80;;;;;;;6.38;79.41;98551.69;5954716;24;20032;-73
2021/11/01 23:35:55;;;;;;;2.25;0.70;;;;;;;6.37;79.83;98552.00;5952797;23;20008;-72
2021/11/01 23:38:40;;;;;;;;;;;;;;;;;;;;;
2021/11/01 23:41:49;;;;;;;;;;;;;;;;;;;;;
2021/11/01 23:45:25;;;;;;;2.40;1.20;;;;;;;6.25;79.30;98546.91;6124267;23;20062;-76
2021/11/01 23:48:00;;;;;;;4.93;1.25;;;;;;;6.29;80.24;98553.38;5994911;23;20016;-74
2021/11/01 23:50:44;;;;;;;0.80;0.70;;;;;;;6.24;79.53;98553.44;6128905;23;20029;-73
